This is the latest recevied weather packets stored in our database for station/object VU3KEB-1. If no packets are shown the sender has not sent any weather packets the latest 10 day(s).
| Time | Temp. | Humidity | Pressure | Rain* | Wind** | Luminosity | Snow |
|---|---|---|---|---|---|---|---|
| 1787909461 | 31.11° C | 49% | 1031 hPa | - | - | - | - |
| 1787908247 | 31.11° C | 49% | 1031.4 hPa | - | - | - | - |
| 1787907032 | 31.11° C | 49% | 1031.4 hPa | - | - | - | - |
| 1787905817 | 30.56° C | 49% | 1031.4 hPa | - | - | - | - |
| 1787904602 | 30.56° C | 50% | 1032.1 hPa | - | - | - | - |
| 1787903386 | 30.56° C | 50% | 1032.1 hPa | - | - | - | - |
| 1787902172 | 30° C | 50% | 1032.1 hPa | - | - | - | - |
| 1787900957 | 30° C | 51% | 1032.9 hPa | - | - | - | - |
| 1787899742 | 29.44° C | 53% | 1033.9 hPa | - | - | - | - |
| 1787898527 | 28.33° C | 53% | 1033.9 hPa | - | - | - | - |
| 1787897311 | 27.78° C | 58% | 1034.3 hPa | - | - | - | - |
| 1787896097 | 27.78° C | 58% | 1034.3 hPa | - | - | - | - |
| 1787894880 | 27.78° C | 58% | 1034.3 hPa | - | - | - | - |
| 1787893657 | 27.22° C | 61% | 1034.8 hPa | - | - | - | - |
| 1787892189 | 26.67° C | 61% | 1034.8 hPa | - | - | - | - |
| 1787890974 | 26.11° C | 61% | 1034.8 hPa | - | - | - | - |
| 1787889760 | 25.56° C | 66% | 1034.5 hPa | - | - | - | - |
| 1787888543 | 25° C | 66% | 1034.5 hPa | - | - | - | - |
| 1787835104 | 27.22° C | 66% | 1031.5 hPa | - | - | - | - |
| 1787833890 | 27.78° C | 66% | 1031.5 hPa | - | - | - | - |
| 1787832676 | 25° C | 88% | 1031.1 hPa | - | - | - | - |
| 1787831462 | 25° C | 88% | 1031.1 hPa | - | - | - | - |
| 1787830248 | 25.56° C | 88% | 1031.1 hPa | - | - | - | - |
| 1787829033 | 26.11° C | 76% | 1030.8 hPa | - | - | - | - |
| 1787827819 | 26.11° C | 76% | 1030.8 hPa | - | - | - | - |
* Rain since midnight (hover to see other rain measurements)
** Current wind speed in m/s (hover to see current wind gust speed)